Time;durP1;ratioP1;P1;durP2;ratioP2;P2;SDS_P1;SDS_P2;PMS_P1;PMS_P2;Temp;Humidity;BMP_temperature;BMP_pressure;BME280_temperature;BME280_humidity;BME280_pressure;Samples;Min_cycle;Max_cycle;Signal;HPM_P1;HPM_P2
2023/11/07 00:01:28;;;;;;;;;;;7.70;99.90;;;6.93;100.00;97309.81;4983312;28;1565;-73
2023/11/07 00:03:56;;;;;;;;;;;7.70;99.90;;;6.89;100.00;97313.41;4967420;28;1625;-73
2023/11/07 00:06:23;;;;;;;;;;;7.70;99.90;;;6.86;100.00;97314.31;4984755;28;1728;-73
2023/11/07 00:08:50;;;;;;;;;;;7.70;99.90;;;6.75;100.00;97312.97;4985706;28;1587;-72
2023/11/07 00:11:19;;;;;;;;;;;7.60;99.90;;;6.81;100.00;97318.78;4983382;28;1869;-72
2023/11/07 00:13:47;;;;;;;;;;;7.60;99.90;;;6.82;100.00;97322.19;4981916;28;2007;-73
2023/11/07 00:16:15;;;;;;;;;;;7.60;99.90;;;6.90;100.00;97326.22;4968016;28;1967;-73
2023/11/07 00:18:42;;;;;;;;;;;7.50;99.90;;;6.79;100.00;97324.88;4982970;28;1546;-74
2023/11/07 00:21:10;;;;;;;;;;;7.50;99.90;;;6.74;100.00;97322.44;4984959;28;1728;-73
2023/11/07 00:23:37;;;;;;;;;;;7.60;99.90;;;6.77;100.00;97334.41;4980126;28;1697;-74
2023/11/07 00:26:05;;;;;;;;;;;7.50;99.90;;;6.84;100.00;97331.59;4982156;28;1655;-73
2023/11/07 00:28:32;;;;;;;;;;;7.50;99.90;;;6.81;100.00;97330.84;4968198;28;1782;-73
2023/11/07 00:30:59;;;;;;;;;;;7.60;99.90;;;6.93;100.00;97335.59;4982061;28;1580;-73
2023/11/07 00:33:26;;;;;;;;;;;7.60;99.90;;;6.93;100.00;97338.19;4981589;28;1766;-73
2023/11/07 00:35:53;;;;;;;;;;;7.60;99.90;;;6.90;100.00;97339.13;4965432;28;1914;-71
2023/11/07 00:38:20;;;;;;;;;;;7.70;99.90;;;6.83;100.00;97334.22;4981594;28;1945;-73
2023/11/07 00:40:48;;;;;;;;;;;7.70;99.90;;;6.89;100.00;97334.88;4979466;28;1726;-73
2023/11/07 00:43:15;;;;;;;;;;;7.60;99.90;;;6.83;100.00;97342.78;4978243;28;1702;-73
2023/11/07 00:45:43;;;;;;;;;;;7.60;99.90;;;6.93;100.00;97343.34;4981517;28;1810;-73
2023/11/07 00:48:10;;;;;;;;;;;7.70;99.90;;;6.96;100.00;97343.25;4982501;28;1576;-72
2023/11/07 00:50:37;;;;;;;;;;;7.70;99.90;;;6.98;100.00;97348.34;4980529;28;1809;-73
2023/11/07 00:53:05;;;;;;;;;;;7.70;99.90;;;7.04;100.00;97343.84;4980196;28;1708;-73
2023/11/07 00:55:31;;;;;;;;;;;7.70;99.90;;;7.08;100.00;97337.69;4982125;28;2011;-73
2023/11/07 00:57:59;;;;;;;;;;;7.70;99.90;;;7.09;100.00;97334.25;4983269;28;1492;-73
2023/11/07 01:00:27;;;;;;;;;;;7.80;99.90;;;7.01;100.00;97332.78;4982660;28;1718;-73
2023/11/07 01:02:54;;;;;;;;;;;7.80;99.90;;;7.12;100.00;97333.28;4982639;28;1830;-73
2023/11/07 01:05:22;;;;;;;;;;;7.80;99.90;;;7.24;100.00;97332.88;4967212;28;2032;-73
2023/11/07 01:07:49;;;;;;;;;;;7.80;99.90;;;7.19;100.00;97334.78;4980817;28;1617;-72
2023/11/07 01:10:15;;;;;;;;;;;7.80;99.90;;;7.13;100.00;97335.81;4985267;28;1210;-73
2023/11/07 01:12:45;;;;;;;;;;;7.90;99.90;;;7.20;100.00;97338.19;4982387;28;1631;-73
2023/11/07 01:15:12;;;;;;;;;;;7.90;99.90;;;7.26;100.00;97333.66;4982978;28;1587;-73
2023/11/07 01:17:39;;;;;;;;;;;7.90;99.90;;;7.16;100.00;97334.03;4982714;28;1962;-73
2023/11/07 01:20:07;;;;;;;;;;;7.90;99.90;;;7.17;100.00;97338.31;4983222;28;1552;-73
2023/11/07 01:22:34;;;;;;;;;;;8.00;99.90;;;7.16;100.00;97345.22;4981299;28;1654;-72
2023/11/07 01:25:01;;;;;;;;;;;7.90;99.90;;;7.20;100.00;97340.78;4968023;28;1616;-73
2023/11/07 01:27:28;;;;;;;;;;;7.90;99.90;;;7.24;100.00;97343.19;4983301;28;1556;-73
2023/11/07 01:29:55;;;;;;;;;;;8.00;99.90;;;7.28;100.00;97343.97;4982806;28;1620;-73
2023/11/07 01:32:25;;;;;;;;;;;8.00;99.90;;;7.18;100.00;97335.66;4999259;28;1548;-73
2023/11/07 01:34:53;;;;;;;;;;;7.90;99.90;;;7.25;100.00;97342.31;4982313;28;1614;-73
2023/11/07 01:37:20;;;;;;;;;;;7.90;99.90;;;7.17;100.00;97336.56;4985084;28;1906;-73
2023/11/07 01:39:47;;;;;;;;;;;7.90;99.90;;;7.21;100.00;97337.31;4968590;28;1522;-73
2023/11/07 01:42:14;;;;;;;;;;;8.00;99.90;;;7.27;100.00;97339.69;4985621;28;1690;-73
2023/11/07 01:44:54;;;;;;;;;;;8.00;99.90;;;7.26;100.00;97338.00;4982579;28;1554;-73
2023/11/07 01:47:24;;;;;;;;;;;8.00;99.90;;;7.32;100.00;97337.78;4979272;28;1424;-73
2023/11/07 01:49:52;;;;;;;;;;;8.00;99.90;;;7.33;100.00;97337.72;4986342;28;1771;-73
2023/11/07 01:52:20;;;;;;;;;;;8.00;99.90;;;7.38;100.00;97339.31;4968542;28;1570;-74
2023/11/07 01:54:51;;;;;;;;;;;8.00;99.90;;;7.32;100.00;97332.59;4982608;28;1599;-74
2023/11/07 01:57:18;;;;;;;;;;;8.10;99.90;;;7.40;100.00;97337.53;4981288;28;1903;-72
2023/11/07 01:59:47;;;;;;;;;;;8.10;99.90;;;7.41;100.00;97340.06;4980031;28;1606;-73
2023/11/07 02:02:18;;;;;;;;;;;8.10;99.90;;;7.49;100.00;97342.38;4965638;28;1562;-72
2023/11/07 02:04:46;;;;;;;;;;;8.10;99.90;;;7.46;100.00;97334.75;4963982;28;1620;-73
2023/11/07 02:07:14;;;;;;;;;;;8.10;99.90;;;7.41;100.00;97337.50;4979269;28;1595;-73
2023/11/07 02:09:41;;;;;;;;;;;8.20;99.90;;;7.39;100.00;97341.00;4997541;28;1647;-73
2023/11/07 02:12:09;;;;;;;;;;;8.10;99.90;;;7.57;100.00;97335.19;4964377;28;1684;-72
2023/11/07 02:14:36;;;;;;;;;;;8.10;99.90;;;7.57;100.00;97334.38;4996513;28;1393;-73
2023/11/07 02:17:04;;;;;;;;;;;8.10;99.90;;;7.54;100.00;97336.16;4982730;28;1977;-73
2023/11/07 02:19:32;;;;;;;;;;;8.10;99.90;;;7.48;100.00;97332.94;4979915;28;1921;-73
2023/11/07 02:21:59;;;;;;;;;;;8.10;99.90;;;7.46;100.00;97322.69;4987731;28;1604;-73
2023/11/07 02:24:27;;;;;;;;;;;8.20;99.90;;;7.48;100.00;97322.59;4986326;28;1590;-74
2023/11/07 02:26:58;;;;;;;;;;;8.10;99.90;;;7.38;100.00;97324.66;5002971;28;1518;-74
2023/11/07 02:29:25;;;;;;;;;;;8.10;99.90;;;7.47;100.00;97331.25;4985683;28;1636;-73
2023/11/07 02:31:52;;;;;;;;;;;8.20;99.90;;;7.43;100.00;97327.09;4985678;28;1564;-73
2023/11/07 02:34:19;;;;;;;;;;;8.10;99.90;;;7.56;100.00;97325.78;4989469;28;1539;-73
2023/11/07 02:36:46;;;;;;;;;;;8.10;99.90;;;7.50;100.00;97326.84;4987427;28;1902;-73
2023/11/07 02:39:14;;;;;;;;;;;8.10;99.90;;;7.45;100.00;97320.13;4987129;28;1640;-73
2023/11/07 02:41:43;;;;;;;;;;;8.10;99.90;;;7.43;100.00;97327.09;4987125;28;1519;-73
2023/11/07 02:44:13;;;;;;;;;;;8.10;99.90;;;7.47;100.00;97321.78;4983928;28;1536;-73
2023/11/07 02:46:41;;;;;;;;;;;8.10;99.90;;;7.47;100.00;97328.69;4969785;28;1763;-73
2023/11/07 02:49:08;;;;;;;;;;;8.10;99.90;;;7.48;100.00;97317.44;4989200;28;1500;-73
2023/11/07 02:51:35;;;;;;;;;;;8.10;99.90;;;7.47;100.00;97324.34;4986097;28;1564;-73
2023/11/07 02:54:03;;;;;;;;;;;8.10;99.90;;;7.48;100.00;97323.47;4987989;28;1696;-74
2023/11/07 02:56:31;;;;;;;;;;;8.10;99.90;;;7.57;100.00;97317.13;4986867;28;1910;-72
2023/11/07 02:58:59;;;;;;;;;;;8.10;99.90;;;7.46;100.00;97327.00;4990335;28;1559;-73
2023/11/07 03:01:26;;;;;;;;;;;8.10;99.90;;;7.53;100.00;97319.00;4985515;28;1547;-73
2023/11/07 03:03:54;;;;;;;;;;;8.10;99.90;;;7.48;100.00;97312.28;4989037;28;1462;-73
2023/11/07 03:06:22;;;;;;;;;;;8.10;99.90;;;7.41;100.00;97309.09;4973217;28;1562;-73
2023/11/07 03:08:49;;;;;;;;;;;8.10;99.90;;;7.48;100.00;97318.31;4986198;28;1576;-73
2023/11/07 03:11:16;;;;;;;;;;;8.10;99.90;;;7.56;100.00;97317.19;5003393;28;1559;-73
2023/11/07 03:13:45;;;;;;;;;;;8.10;99.90;;;7.37;100.00;97302.34;4985552;28;1900;-74
2023/11/07 03:16:12;;;;;;;;;;;8.10;99.90;;;7.39;100.00;97308.28;4987519;28;2097;-73
2023/11/07 03:18:39;;;;;;;;;;;8.10;99.90;;;7.43;100.00;97317.59;4984704;28;1560;-73
2023/11/07 03:21:07;;;;;;;;;;;8.10;99.90;;;7.43;100.00;97314.19;4987760;28;1561;-73
2023/11/07 03:23:34;;;;;;;;;;;8.10;99.90;;;7.54;100.00;97317.25;4984672;28;1573;-72
2023/11/07 03:26:04;;;;;;;;;;;8.10;99.90;;;7.50;100.00;97319.09;4988430;28;1485;-74
2023/11/07 03:28:31;;;;;;;;;;;8.00;99.90;;;7.44;100.00;97310.72;4988147;28;1598;-72
2023/11/07 03:30:58;;;;;;;;;;;8.10;99.90;;;7.54;100.00;97323.25;5002022;28;1498;-74
2023/11/07 03:33:25;;;;;;;;;;;8.10;99.90;;;7.46;100.00;97319.25;4968960;28;1662;-73
2023/11/07 03:35:53;;;;;;;;;;;8.10;99.90;;;7.42;100.00;97315.09;4984362;28;1588;-73
2023/11/07 03:38:23;;;;;;;;;;;8.10;99.90;;;7.49;100.00;97324.31;4982268;28;1952;-73
2023/11/07 03:40:50;;;;;;;;;;;8.10;99.90;;;7.42;100.00;97318.50;4972808;28;1542;-73
2023/11/07 03:43:17;;;;;;;;;;;8.00;99.90;;;7.36;100.00;97313.53;4987372;28;1552;-73
2023/11/07 03:45:44;;;;;;;;;;;8.00;99.90;;;7.45;100.00;97326.13;4987100;28;1620;-73
2023/11/07 03:48:12;;;;;;;;;;;8.00;99.90;;;7.39;100.00;97315.19;4987537;28;1603;-73
2023/11/07 03:50:39;;;;;;;;;;;8.00;99.90;;;7.39;100.00;97328.94;4985165;28;1719;-74
2023/11/07 03:53:06;;;;;;;;;;;8.10;99.90;;;7.39;100.00;97320.34;4986352;28;1513;-73
2023/11/07 03:55:33;;;;;;;;;;;8.10;99.90;;;7.36;100.00;97331.63;4984820;28;1596;-73
2023/11/07 03:58:00;;;;;;;;;;;8.10;99.90;;;7.32;100.00;97320.56;4985419;28;1899;-74
2023/11/07 04:00:28;;;;;;;;;;;8.10;99.90;;;7.34;100.00;97320.50;4982440;28;1559;-73
2023/11/07 04:02:55;;;;;;;;;;;8.10;99.90;;;7.39;100.00;97321.22;4985581;28;1471;-73
2023/11/07 04:05:23;;;;;;;;;;;8.10;99.90;;;7.38;100.00;97326.41;4984226;28;1710;-73
2023/11/07 04:07:50;;;;;;;;;;;8.10;99.90;;;7.34;100.00;97336.00;4986236;28;1537;-73
2023/11/07 04:10:17;;;;;;;;;;;8.10;99.90;;;7.27;100.00;97322.44;4985935;28;1647;-74
2023/11/07 04:12:44;;;;;;;;;;;8.10;99.90;;;7.36;100.00;97326.44;4984180;28;1584;-74
2023/11/07 04:15:12;;;;;;;;;;;8.00;99.90;;;7.29;100.00;97335.31;4983992;28;1520;-73
2023/11/07 04:17:40;;;;;;;;;;;8.00;99.90;;;7.23;100.00;97332.91;4985264;28;1970;-73
2023/11/07 04:20:10;;;;;;;;;;;8.00;99.90;;;7.21;100.00;97342.47;4984646;28;1533;-72
2023/11/07 04:22:38;;;;;;;;;;;8.00;99.90;;;7.18;100.00;97350.31;4984917;28;1611;-73
2023/11/07 04:25:22;;;;;;;;;;;8.00;99.90;;;7.15;100.00;97337.50;4984375;28;1580;-72
2023/11/07 04:27:50;;;;;;;;;;;7.90;99.90;;;7.20;100.00;97346.78;4985823;28;1719;-73
2023/11/07 04:30:17;;;;;;;;;;;7.90;99.90;;;7.10;100.00;97351.41;4988451;28;1621;-73
2023/11/07 04:32:44;;;;;;;;;;;7.80;99.90;;;7.16;100.00;97344.34;4984913;28;1592;-73
2023/11/07 04:35:11;;;;;;;;;;;7.80;99.90;;;7.17;100.00;97357.22;4965746;28;1467;-73
2023/11/07 04:37:39;;;;;;;;;;;7.80;99.90;;;7.11;100.00;97357.41;4979873;28;1902;-73
2023/11/07 04:40:07;;;;;;;;;;;7.80;99.90;;;7.08;100.00;97360.94;4984971;28;1516;-73
2023/11/07 04:42:34;;;;;;;;;;;7.80;99.90;;;7.11;100.00;97357.41;4986455;28;1424;-73
2023/11/07 04:45:01;;;;;;;;;;;7.90;99.90;;;7.21;100.00;97360.56;4986381;28;1544;-73
2023/11/07 04:47:29;;;;;;;;;;;7.80;99.90;;;7.09;100.00;97352.31;4971578;28;1515;-74
2023/11/07 04:49:59;;;;;;;;;;;7.80;99.90;;;7.01;100.00;97349.13;4967052;28;1615;-74
2023/11/07 04:52:26;;;;;;;;;;;7.80;99.90;;;6.99;100.00;97356.06;4987568;28;1441;-74
2023/11/07 04:54:53;;;;;;;;;;;7.80;99.90;;;6.96;100.00;97350.16;4985313;28;1656;-74
2023/11/07 04:57:20;;;;;;;;;;;7.70;99.90;;;6.95;100.00;97353.63;4983723;28;1974;-74
2023/11/07 04:59:48;;;;;;;;;;;7.70;99.90;;;6.94;100.00;97351.94;4983650;28;1548;-74
2023/11/07 05:02:15;;;;;;;;;;;7.70;99.90;;;6.86;100.00;97358.16;4984147;28;1570;-74
2023/11/07 05:04:45;;;;;;;;;;;7.60;99.90;;;6.87;100.00;97356.47;4999427;28;1606;-74
2023/11/07 05:07:13;;;;;;;;;;;7.60;99.90;;;6.82;100.00;97356.59;4984747;28;1505;-74
2023/11/07 05:09:40;;;;;;;;;;;7.60;99.90;;;6.84;100.00;97369.44;4980726;28;1564;-74
2023/11/07 05:12:07;;;;;;;;;;;7.50;99.90;;;6.83;100.00;97363.44;4983472;28;1699;-72
2023/11/07 05:14:36;;;;;;;;;;;7.50;99.90;;;6.91;100.00;97366.63;4981858;28;1527;-73
2023/11/07 05:17:04;;;;;;;;;;;7.50;99.90;;;6.95;100.00;97375.09;4985329;28;1984;-74
2023/11/07 05:19:31;;;;;;;;;;;7.60;99.90;;;6.96;100.00;97365.66;4984208;28;1582;-73
2023/11/07 05:21:58;;;;;;;;;;;7.60;99.90;;;6.88;100.00;97346.06;4980111;28;1818;-74
2023/11/07 05:24:42;;;;;;;;;;;7.60;99.90;;;6.84;100.00;97353.94;4981781;28;1528;-73
2023/11/07 05:27:09;;;;;;;;;;;7.60;99.90;;;6.87;100.00;97361.63;4985351;28;1591;-74
2023/11/07 05:29:36;;;;;;;;;;;7.60;99.90;;;6.88;100.00;97347.81;4982048;28;1560;-73
2023/11/07 05:32:04;;;;;;;;;;;7.60;99.90;;;6.90;100.00;97346.88;4981170;28;1580;-73
2023/11/07 05:34:31;;;;;;;;;;;7.60;99.90;;;6.87;100.00;97343.56;4980807;28;1573;-74
2023/11/07 05:36:58;;;;;;;;;;;7.60;99.90;;;6.85;100.00;97356.50;4982524;28;1906;-73
2023/11/07 05:39:27;;;;;;;;;;;7.60;99.90;;;6.87;100.00;97346.13;4984927;28;1759;-74
2023/11/07 05:41:55;;;;;;;;;;;7.60;99.90;;;6.79;100.00;97351.50;4982416;28;1455;-72
2023/11/07 05:44:22;;;;;;;;;;;7.60;99.90;;;6.79;100.00;97348.94;4984099;28;1474;-73
2023/11/07 05:46:51;;;;;;;;;;;7.60;99.90;;;6.78;100.00;97357.59;4982367;28;1806;-74
2023/11/07 05:49:18;;;;;;;;;;;7.60;99.90;;;6.80;100.00;97349.81;4982736;28;1734;-74
2023/11/07 05:51:45;;;;;;;;;;;7.50;99.90;;;6.77;100.00;97349.88;4982892;28;1580;-73
2023/11/07 05:54:12;;;;;;;;;;;7.50;99.90;;;6.83;100.00;97342.78;4982364;28;1668;-74
2023/11/07 05:56:39;;;;;;;;;;;7.50;99.90;;;6.83;100.00;97345.38;4983345;28;1521;-74
2023/11/07 05:59:07;;;;;;;;;;;7.50;99.90;;;6.83;100.00;97349.69;5001773;28;2045;-73
2023/11/07 06:01:34;;;;;;;;;;;7.50;99.90;;;6.78;100.00;97354.16;4988648;28;1548;-74
2023/11/07 06:04:03;;;;;;;;;;;7.50;99.90;;;6.79;100.00;97336.03;4989017;28;1588;-73
2023/11/07 06:06:31;;;;;;;;;;;7.60;99.90;;;6.89;100.00;97349.50;4986868;28;1552;-73
2023/11/07 06:08:58;;;;;;;;;;;7.60;99.90;;;6.91;100.00;97348.56;4990197;28;1359;-73
2023/11/07 06:11:25;;;;;;;;;;;7.60;99.90;;;6.93;100.00;97343.34;4984087;28;1477;-72
2023/11/07 06:13:54;;;;;;;;;;;7.60;99.90;;;6.87;100.00;97341.81;4989780;28;1446;-72
2023/11/07 06:16:21;;;;;;;;;;;7.60;99.90;;;6.91;100.00;97352.88;5001382;28;1383;-73
2023/11/07 06:18:48;;;;;;;;;;;7.60;99.90;;;6.95;100.00;97348.47;4982943;28;1977;-73
2023/11/07 06:21:15;;;;;;;;;;;7.60;99.90;;;6.92;100.00;97349.41;4987120;28;1395;-73
2023/11/07 06:23:43;;;;;;;;;;;7.60;99.90;;;6.81;100.00;97351.47;4984006;28;1392;-74
2023/11/07 06:26:10;;;;;;;;;;;7.60;99.90;;;6.94;100.00;97357.94;4991038;28;1486;-72
2023/11/07 06:28:37;;;;;;;;;;;7.60;99.90;;;6.89;100.00;97358.09;4988639;28;1213;-72
2023/11/07 06:31:04;;;;;;;;;;;7.60;99.90;;;6.88;100.00;97352.97;4988547;28;1915;-72
2023/11/07 06:33:31;;;;;;;;;;;7.50;99.90;;;6.94;100.00;97351.94;4990032;28;1392;-73
2023/11/07 06:35:58;;;;;;;;;;;7.60;99.90;;;6.90;100.00;97361.50;4988104;28;1261;-72
2023/11/07 06:38:25;;;;;;;;;;;7.60;99.90;;;6.88;100.00;97350.38;4987972;28;1983;-73
2023/11/07 06:40:52;;;;;;;;;;;7.60;99.90;;;6.87;100.00;97356.47;4989052;28;1547;-73
2023/11/07 06:43:19;;;;;;;;;;;7.60;99.90;;;6.98;100.00;97369.00;4991054;28;1627;-73
2023/11/07 06:45:47;;;;;;;;;;;7.50;99.90;;;6.91;100.00;97365.75;4989307;28;1443;-73
2023/11/07 06:48:14;;;;;;;;;;;7.60;99.90;;;6.95;100.00;97359.63;4989170;28;1278;-73
2023/11/07 06:50:41;;;;;;;;;;;7.60;99.90;;;6.95;100.00;97375.09;4988048;28;1637;-73
2023/11/07 06:53:09;;;;;;;;;;;7.60;99.90;;;7.01;100.00;97367.19;4987846;28;1591;-72
2023/11/07 06:55:39;;;;;;;;;;;7.70;99.90;;;6.95;100.00;97380.25;4987428;28;1621;-73
2023/11/07 06:58:08;;;;;;;;;;;7.70;99.90;;;7.01;100.00;97376.66;4986728;28;1899;-73
2023/11/07 07:00:38;;;;;;;;;;;7.70;99.90;;;6.91;100.00;97374.38;4988157;28;1446;-73
2023/11/07 07:03:06;;;;;;;;;;;7.70;99.90;;;6.93;100.00;97382.03;4987028;28;2062;-73
2023/11/07 07:05:33;;;;;;;;;;;7.70;99.90;;;6.90;100.00;97383.00;4990624;28;1412;-73
2023/11/07 07:08:00;;;;;;;;;;;7.70;99.90;;;6.95;100.00;97395.75;4987750;28;1028;-73
2023/11/07 07:10:28;;;;;;;;;;;7.70;99.90;;;7.05;100.00;97396.31;4984951;28;1375;-72
2023/11/07 07:12:54;;;;;;;;;;;7.60;99.90;;;7.02;100.00;97393.81;4982737;28;1132;-73
2023/11/07 07:15:21;;;;;;;;;;;7.70;99.90;;;7.01;100.00;97397.31;4988383;28;1365;-73
2023/11/07 07:17:48;;;;;;;;;;;7.80;99.90;;;7.10;100.00;97391.84;4989781;28;1895;-73
2023/11/07 07:20:15;;;;;;;;;;;7.80;99.90;;;7.09;100.00;97401.34;4989749;28;1073;-73
2023/11/07 07:22:44;;;;;;;;;;;7.70;99.90;;;7.11;100.00;97389.22;4987639;28;1429;-73
2023/11/07 07:25:20;;;;;;;;;;;7.70;99.90;;;7.09;100.00;97392.72;4986314;28;1551;-73
2023/11/07 07:27:48;;;;;;;;;;;7.70;99.90;;;6.95;100.00;97406.06;4984834;28;1137;-73
2023/11/07 07:30:20;;;;;;;;;;;7.70;99.90;;;7.00;100.00;97406.78;4986089;28;1404;-73
2023/11/07 07:32:50;;;;;;;;;;;7.60;99.90;;;6.99;100.00;97405.09;4985001;28;1106;-73
2023/11/07 07:35:20;;;;;;;;;;;7.60;99.90;;;6.91;100.00;97409.63;4985511;28;1019;-73
2023/11/07 07:37:52;;;;;;;;;;;7.60;99.90;;;6.92;100.00;97388.13;4971164;28;1950;-73
2023/11/07 07:40:29;;;;;;;;;;;7.60;99.90;;;6.98;100.00;97402.53;4985384;28;1402;-73
2023/11/07 07:43:08;;;;;;;;;;;7.60;99.90;;;6.98;100.00;97405.13;4983989;28;1269;-73
2023/11/07 07:45:42;;;;;;;;;;;7.60;99.90;;;6.99;100.00;97399.09;4971089;28;1403;-73
2023/11/07 07:48:10;;;;;;;;;;;7.60;99.90;;;7.05;100.00;97410.06;4986408;28;1673;-73
2023/11/07 07:50:46;;;;;;;;;;;7.60;99.90;;;7.01;100.00;97403.31;4986183;28;2187;-73
2023/11/07 07:53:16;;;;;;;;;;;7.70;99.90;;;7.13;100.00;97420.13;4985606;28;1280;-73
2023/11/07 07:55:46;;;;;;;;;;;7.70;99.90;;;7.20;100.00;97410.47;4974005;28;1250;-73
2023/11/07 07:58:18;;;;;;;;;;;7.70;99.90;;;7.11;100.00;97403.84;4985002;28;1964;-73
2023/11/07 08:00:50;;;;;;;;;;;7.70;99.90;;;6.99;100.00;97415.41;4987220;28;1325;-73
2023/11/07 08:03:17;;;;;;;;;;;7.70;99.90;;;7.01;100.00;97413.63;4986241;28;1543;-73
2023/11/07 08:05:47;;;;;;;;;;;7.70;99.90;;;7.08;100.00;97412.53;4971037;28;1575;-73
2023/11/07 08:08:16;;;;;;;;;;;7.70;99.90;;;7.03;100.00;97411.84;4992545;28;1233;-73
2023/11/07 08:10:47;;;;;;;;;;;7.70;99.90;;;7.08;100.00;97411.72;4982159;28;1616;-73
2023/11/07 08:13:16;;;;;;;;;;;7.70;99.90;;;7.04;100.00;97416.09;4983665;28;1376;-72
2023/11/07 08:15:43;;;;;;;;;;;7.70;99.90;;;7.04;100.00;97413.53;4987395;28;1322;-72
2023/11/07 08:18:11;;;;;;;;;;;7.70;99.90;;;7.10;100.00;97405.59;4982792;28;1977;-73
2023/11/07 08:20:40;;;;;;;;;;;7.70;99.90;;;7.10;100.00;97410.75;4985389;28;1764;-73
2023/11/07 08:23:07;;;;;;;;;;;7.70;99.90;;;6.99;100.00;97399.09;4986579;28;1234;-73
2023/11/07 08:25:34;;;;;;;;;;;7.70;99.90;;;7.09;100.00;97414.25;4986744;28;1295;-73
2023/11/07 08:28:06;;;;;;;;;;;7.70;99.90;;;7.07;100.00;97403.13;4985275;28;1703;-73
2023/11/07 08:30:34;;;;;;;;;;;7.70;99.90;;;7.13;100.00;97425.31;4985702;28;1454;-73
2023/11/07 08:33:02;;;;;;;;;;;7.70;99.90;;;7.10;100.00;97415.94;4986987;28;1488;-73
2023/11/07 08:35:30;;;;;;;;;;;7.70;99.90;;;7.08;100.00;97417.72;4987533;28;1630;-73
2023/11/07 08:37:58;;;;;;;;;;;7.70;99.90;;;7.08;100.00;97422.88;4986686;28;1990;-73
2023/11/07 08:40:25;;;;;;;;;;;7.70;99.90;;;7.12;100.00;97431.38;4983633;28;1325;-73
2023/11/07 08:42:52;;;;;;;;;;;7.70;99.90;;;7.11;100.00;97422.75;4984183;28;1387;-73
2023/11/07 08:45:20;;;;;;;;;;;7.80;99.90;;;7.13;100.00;97433.88;4985969;28;1257;-73
2023/11/07 08:47:53;;;;;;;;;;;7.80;99.90;;;7.28;100.00;97430.00;4983135;28;1206;-72
2023/11/07 08:50:20;;;;;;;;;;;7.80;99.90;;;7.24;100.00;97425.81;5001179;28;1371;-73
2023/11/07 08:52:51;;;;;;;;;;;7.80;99.90;;;7.32;100.00;97439.34;4982474;28;1713;-73
2023/11/07 08:55:19;;;;;;;;;;;7.90;99.90;;;7.27;100.00;97428.28;4984811;28;1238;-73
2023/11/07 08:57:49;;;;;;;;;;;7.90;99.90;;;7.37;100.00;97433.16;4984436;28;1906;-73
2023/11/07 09:00:23;;;;;;;;;;;8.00;99.90;;;7.49;100.00;97432.78;4987182;28;1709;-73
2023/11/07 09:02:51;;;;;;;;;;;7.90;99.90;;;7.39;100.00;97446.88;4985194;28;1249;-72
2023/11/07 09:05:19;;;;;;;;;;;7.90;99.90;;;7.33;100.00;97447.91;4981614;28;1318;-73
2023/11/07 09:07:46;;;;;;;;;;;8.00;99.90;;;7.44;100.00;97450.16;4973387;28;1445;-72
2023/11/07 09:10:14;;;;;;;;;;;7.90;99.90;;;7.24;100.00;97437.88;4985281;28;1320;-73
2023/11/07 09:12:44;;;;;;;;;;;7.90;99.90;;;7.40;100.00;97470.06;4970621;28;1592;-73
2023/11/07 09:15:11;;;;;;;;;;;7.90;99.90;;;7.41;100.00;97445.09;4971664;28;1272;-73
2023/11/07 09:17:41;;;;;;;;;;;7.90;99.90;;;7.39;100.00;97457.19;4982627;28;1492;-73
2023/11/07 09:20:13;;;;;;;;;;;7.90;99.90;;;7.43;100.00;97457.03;4984957;28;1993;-72
2023/11/07 09:22:42;;;;;;;;;;;7.90;99.90;;;7.57;100.00;97458.34;4982868;28;1509;-73
2023/11/07 09:25:09;;;;;;;;;;;8.00;99.90;;;7.45;100.00;97467.34;4986414;28;1387;-72
2023/11/07 09:27:37;;;;;;;;;;;8.00;99.90;;;7.58;100.00;97471.22;4970171;28;1582;-73
2023/11/07 09:30:08;;;;;;;;;;;8.10;99.90;;;7.49;100.00;97451.69;4986460;28;1728;-73
2023/11/07 09:32:53;;;;;;;;;;;8.10;99.90;;;7.44;100.00;97442.41;4983215;28;1511;-73
2023/11/07 09:35:21;;;;;;;;;;;8.10;99.90;;;7.58;100.00;97470.38;4969030;28;1488;-73
2023/11/07 09:37:49;;;;;;;;;;;8.10;99.90;;;7.58;100.00;97458.31;4967493;28;1585;-73
2023/11/07 09:40:19;;;;;;;;;;;8.10;99.90;;;7.71;100.00;97471.69;4983432;28;1261;-73
2023/11/07 09:42:51;;;;;;;;;;;8.20;99.90;;;7.66;100.00;97476.13;4985365;28;1444;-72
2023/11/07 09:45:19;;;;;;;;;;;8.20;99.90;;;7.76;100.00;97485.28;4968880;28;1544;-73
2023/11/07 09:47:47;;;;;;;;;;;8.30;99.90;;;7.80;100.00;97478.25;4985520;28;1326;-72
2023/11/07 09:50:16;;;;;;;;;;;8.40;99.90;;;7.84;100.00;97472.94;4980925;28;1222;-73
2023/11/07 09:52:45;;;;;;;;;;;8.40;99.90;;;7.95;100.00;97480.34;4986037;28;1385;-73
2023/11/07 09:55:15;;;;;;;;;;;8.40;99.90;;;7.91;100.00;97482.19;4983290;28;1658;-73
2023/11/07 09:57:49;;;;;;;;;;;8.40;99.90;;;7.92;100.00;97477.88;4984558;28;1413;-73
2023/11/07 10:00:24;;;;;;;;;;;8.50;99.90;;;8.15;100.00;97477.09;4999020;28;1387;-71
2023/11/07 10:02:52;;;;;;;;;;;8.70;99.90;;;8.09;100.00;97480.72;4982303;28;1531;-71
2023/11/07 10:05:20;;;;;;;;;;;8.70;99.90;;;7.94;100.00;97466.59;4981871;28;1423;-72
2023/11/07 10:07:49;;;;;;;;;;;8.70;99.90;;;7.88;100.00;97481.44;4981032;28;1629;-72
2023/11/07 10:10:19;;;;;;;;;;;8.60;99.90;;;8.06;100.00;97485.16;4982177;28;1568;-73
2023/11/07 10:12:47;;;;;;;;;;;8.70;99.90;;;8.12;100.00;97484.97;4981813;28;1638;-72
2023/11/07 10:15:27;;;;;;;;;;;8.70;99.90;;;8.23;100.00;97481.97;4979741;28;1500;-71
2023/11/07 10:17:57;;;;;;;;;;;8.80;99.90;;;8.32;100.00;97485.06;4978844;28;1627;-71
2023/11/07 10:20:25;;;;;;;;;;;8.90;99.90;;;8.40;100.00;97492.63;4978977;28;1664;-72
2023/11/07 10:22:53;;;;;;;;;;;8.90;99.90;;;8.27;100.00;97481.81;4965015;28;1654;-73
2023/11/07 10:25:29;;;;;;;;;;;8.90;99.90;;;8.52;100.00;97497.34;4980394;28;1612;-72
2023/11/07 10:28:06;;;;;;;;;;;8.90;99.90;;;8.41;100.00;97488.28;4980059;28;1631;-73
2023/11/07 10:30:41;;;;;;;;;;;8.90;99.90;;;8.20;100.00;97500.19;4982221;28;1690;-72
2023/11/07 10:33:09;;;;;;;;;;;8.90;99.90;;;8.16;100.00;97502.91;4994659;28;1625;-73
2023/11/07 10:35:56;;;;;;;;;;;8.80;99.90;;;8.04;100.00;97492.94;4974303;28;1623;-73
2023/11/07 10:38:23;;;;;;;;;;;8.70;99.90;;;7.97;100.00;97488.88;4985859;28;2017;-73
2023/11/07 10:40:51;;;;;;;;;;;8.70;99.90;;;8.09;100.00;97496.22;4989687;28;1458;-73
2023/11/07 10:43:38;;;;;;;;;;;8.80;99.90;;;8.22;100.00;97493.22;4998920;28;1692;-73
2023/11/07 10:46:09;;;;;;;;;;;8.80;99.90;;;8.21;100.00;97491.53;4983595;28;1604;-72
2023/11/07 10:48:39;;;;;;;;;;;8.80;99.90;;;8.11;100.00;97494.44;4987932;28;1613;-73
2023/11/07 10:51:08;;;;;;;;;;;8.80;99.90;;;8.30;100.00;97504.13;4982945;28;1602;-73
2023/11/07 10:53:37;;;;;;;;;;;8.80;99.90;;;8.41;100.00;97503.81;4986091;28;1643;-75
2023/11/07 10:56:12;;;;;;;;;;;8.90;99.90;;;8.68;100.00;97504.56;4990152;28;1525;-72
2023/11/07 10:58:50;;;;;;;;;;;9.00;99.90;;;8.95;100.00;97484.59;4995455;28;1910;-74
2023/11/07 11:01:20;;;;;;;;;;;9.10;99.90;;;8.67;100.00;97479.59;4987267;28;1454;-73
2023/11/07 11:03:49;;;;;;;;;;;9.30;99.90;;;8.49;100.00;97479.38;4970577;28;1878;-72
2023/11/07 11:06:19;;;;;;;;;;;9.30;99.90;;;8.44;100.00;97480.41;4989214;28;1246;-73
2023/11/07 11:08:48;;;;;;;;;;;9.10;99.90;;;8.46;100.00;97482.06;4976904;28;1372;-72
2023/11/07 11:11:15;;;;;;;;;;;9.00;99.90;;;8.46;100.00;97499.31;4985125;28;1391;-74
2023/11/07 11:13:43;;;;;;;;;;;9.00;99.90;;;8.40;100.00;97494.34;4971271;28;1370;-73
2023/11/07 11:16:10;;;;;;;;;;;9.00;99.90;;;8.34;100.00;97492.78;4974032;28;1254;-72
2023/11/07 11:19:19;;;;;;;;;;;8.90;99.90;;;8.32;100.00;97492.84;4987396;28;2000;-73
2023/11/07 11:21:56;;;;;;;;;;;8.80;99.90;;;8.20;100.00;97492.44;4984363;28;1542;-72
2023/11/07 11:24:46;;;;;;;;;;;8.80;99.90;;;8.34;100.00;97496.22;4987173;28;1403;-72
2023/11/07 11:27:21;;;;;;;;;;;8.90;99.90;;;8.20;100.00;97505.38;4982890;28;1524;-72
2023/11/07 11:29:51;;;;;;;;;;;8.90;99.90;;;8.36;100.00;97501.34;4988732;28;1401;-73
2023/11/07 11:32:34;;;;;;;;;;;9.00;99.90;;;8.70;100.00;97501.03;4986566;28;1587;-72
2023/11/07 11:35:17;;;;;;;;;;;8.90;99.90;;;8.59;100.00;97492.81;4987929;28;1438;-72
2023/11/07 11:38:23;;;;;;;;;;;9.00;99.90;;;8.50;100.00;97488.78;4986890;28;1383;-72
2023/11/07 11:40:55;;;;;;;;;;;9.10;99.90;;;8.41;100.00;97491.72;4981641;28;1434;-73
2023/11/07 11:43:32;;;;;;;;;;;9.10;99.90;;;8.35;100.00;97490.16;4987427;28;1253;-73